Etusivu
METAR-TAF:

METAR-TAF

Lentoasemat :

Sotilaslentoasema

Linköping, Ruotsi

Leveyspiiri: 58-24N, Pituuspiiri: 015-31E, korkeus merenpinnasta: 93 m

Tämänhetkinen sää

Tämä raportti tehtiin 49 minuuttia sitten, kello 13.20 UTC
Tuuli 12 kn pohjoisen/luoteesta, vaihdellen luoteen ja pohjoisen välillä
Lämpötila 3°C
Kosteus 35%
Ilmanpaine 1025 hPa
Näkyvyys 10 km tai enemmän
ei pilviä alle 1500 m:ssä eikä cumulonimbus-pilviä

METAR: ESCF 301320Z 34012KT 310V010 CAVOK 03/M11 Q1025

Aika: 16:09 (14:09 UTC)

Sääennuste

Tämä raportti tehtiin 2 tuntia ja 39 minuuttia sitten, kello 11.30 UTC
Ennuste voimassa 30. päivästä klo 12 UTC - 30. päivään klo 15 UTC
Tuuli 15 kn pohjoisesta/koillisesta puuskistuen 22 kn:hen
Näkyvyys 10 km tai enemmän
Hajanaisia pilviä 6000 ft:n korkeudessa
Ajoittain
30. päivästä klo 12 UTC - 30. päivään klo 14 UTC
Tuuli 19 kn pohjoisesta/koillisesta puuskistuen 25 kn:hen

TAF: ESCF 301130Z 3012/3015 02015G22KT 9999 SCT060 TEMPO 3012/3014 02019G25KT RMK MIL

Säähavainnot ja -ennusteet yli 4000 lentoasemalta (METAR- ja TAF-raportit).

Käytössä olevat sääasemat on merkitty karttaan keltaisilla ja punaisilla pisteillä.

Aseta hiiri pisteen päälle nähdäksesi sääaseman nimen.

Klikkaa sitten nähdäksesi säähavainnot ja -ennusteet.

Kartan vaihtaminen: klikkaa mustalla rastilla varustettuja vihreitä pisteitä, niin voit zoomata sisään; viivalla varustettua vihreää pistettä, niin voit zoomata ulos tai vihreitä nuolia, niin pääset viereisille kartoille.


METAR-TAF: